createdAt,value
2019-04-21T00:02:03.761Z,9.83
2019-04-21T00:04:48.151Z,10.53
2019-04-21T00:07:36.708Z,10.00
2019-04-21T00:12:22.026Z,10.13
2019-04-21T00:14:46.077Z,9.60
2019-04-21T00:17:12.379Z,9.57
2019-04-21T00:20:09.109Z,9.73
2019-04-21T00:22:42.154Z,9.50
2019-04-21T00:25:13.912Z,9.87
2019-04-21T00:27:47.041Z,10.40
2019-04-21T00:30:21.361Z,9.77
2019-04-21T00:32:41.870Z,10.00
2019-04-21T00:35:06.420Z,10.47
2019-04-21T00:37:53.457Z,9.47
2019-04-21T00:40:22.019Z,10.83
2019-04-21T00:42:51.126Z,11.17
2019-04-21T00:45:18.198Z,12.17
2019-04-21T00:47:58.719Z,11.27
2019-04-21T00:50:34.076Z,11.40
2019-04-21T00:53:19.731Z,12.37
2019-04-21T00:56:03.321Z,12.10
2019-04-21T00:58:26.961Z,12.13
2019-04-21T01:00:46.499Z,12.57
2019-04-21T01:03:23.104Z,11.30
2019-04-21T01:05:51.811Z,12.70
2019-04-21T01:08:21.710Z,12.33
2019-04-21T01:10:43.338Z,11.10
2019-04-21T01:13:23.475Z,11.17
2019-04-21T01:15:57.260Z,11.30
2019-04-21T01:18:20.514Z,11.20
2019-04-21T01:20:32.130Z,10.53
2019-04-21T01:23:02.207Z,10.07
2019-04-21T01:25:40.435Z,10.20
2019-04-21T01:28:18.925Z,11.40
2019-04-21T01:30:55.361Z,10.33
2019-04-21T01:33:27.801Z,10.07
2019-04-21T01:35:54.911Z,10.47
2019-04-21T01:38:31.638Z,9.97
2019-04-21T01:41:00.607Z,9.93
2019-04-21T01:43:27.546Z,10.73
2019-04-21T01:45:53.537Z,10.50
2019-04-21T01:48:28.963Z,9.87
2019-04-21T01:50:55.792Z,10.33
2019-04-21T01:53:48.614Z,11.17
2019-04-21T01:56:43.170Z,10.27
2019-04-21T01:59:00.863Z,9.67
2019-04-21T02:01:39.234Z,9.93
2019-04-21T02:04:13.808Z,10.37
2019-04-21T02:06:49.056Z,9.57
2019-04-21T02:09:13.056Z,9.20
2019-04-21T02:11:50.926Z,9.80
2019-04-21T02:14:19.601Z,9.50
2019-04-21T02:16:48.166Z,10.33
2019-04-21T02:19:15.353Z,9.13
2019-04-21T02:21:38.275Z,9.63
2019-04-21T02:24:31.580Z,9.03
2019-04-21T02:26:47.708Z,9.37
2019-04-21T02:29:22.973Z,9.77
2019-04-21T02:32:01.890Z,9.37
2019-04-21T02:34:32.210Z,8.83
2019-04-21T02:37:21.408Z,9.23
2019-04-21T02:42:03.355Z,9.03
2019-04-21T02:46:58.748Z,9.23
2019-04-21T02:49:50.300Z,8.70
2019-04-21T02:52:14.235Z,8.77
2019-04-21T02:59:50.001Z,8.97
2019-04-21T03:05:21.162Z,9.03
2019-04-21T03:07:52.287Z,8.63
2019-04-21T03:12:41.470Z,8.73
2019-04-21T03:15:22.059Z,8.90
2019-04-21T03:17:49.947Z,8.90
2019-04-21T03:20:17.006Z,9.47
2019-04-21T03:25:33.093Z,8.50
2019-04-21T03:30:38.687Z,10.00
2019-04-21T03:33:32.508Z,10.13
2019-04-21T03:42:57.791Z,11.00
2019-04-21T03:45:58.837Z,9.70
2019-04-21T03:47:53.457Z,10.13
2019-04-21T03:50:29.697Z,11.00
2019-04-21T03:53:16.882Z,10.10
2019-04-21T03:55:51.002Z,10.53
2019-04-21T04:01:04.114Z,9.90
2019-04-21T04:06:55.578Z,9.60
2019-04-21T04:09:25.735Z,8.90
2019-04-21T04:11:53.055Z,18.53
2019-04-21T04:19:40.309Z,9.70
2019-04-21T04:26:55.213Z,9.13
2019-04-21T04:29:24.148Z,15.93
2019-04-21T04:32:14.514Z,11.23
2019-04-21T04:34:48.492Z,10.90
2019-04-21T04:37:23.980Z,11.67
2019-04-21T04:42:26.776Z,10.90
2019-04-21T04:47:16.678Z,11.00
2019-04-21T04:54:52.910Z,10.23
2019-04-21T04:59:47.852Z,11.87
2019-04-21T05:05:05.893Z,11.13
2019-04-21T05:07:27.432Z,11.73
2019-04-21T05:09:52.313Z,11.73
2019-04-21T05:12:25.185Z,11.87
2019-04-21T05:14:51.868Z,11.63
2019-04-21T05:17:30.916Z,11.93
2019-04-21T05:22:25.505Z,10.27
2019-04-21T05:24:44.073Z,10.57
2019-04-21T05:27:36.516Z,10.43
2019-04-21T05:30:17.386Z,10.83
2019-04-21T05:33:07.094Z,11.10
2019-04-21T05:35:56.268Z,11.13
2019-04-21T05:38:34.718Z,9.60
2019-04-21T05:40:57.626Z,11.17
2019-04-21T05:43:39.082Z,10.80
2019-04-21T05:46:04.697Z,11.00
2019-04-21T05:48:39.675Z,11.20
2019-04-21T05:51:08.924Z,10.40
2019-04-21T05:53:42.591Z,11.20
2019-04-21T05:56:20.706Z,10.57
2019-04-21T05:58:43.973Z,10.23
2019-04-21T06:01:30.162Z,11.23
2019-04-21T06:03:51.592Z,10.50
2019-04-21T06:06:20.449Z,10.23
2019-04-21T06:08:49.896Z,10.80
2019-04-21T06:13:55.589Z,9.93
2019-04-21T06:16:43.017Z,11.13
2019-04-21T06:19:00.486Z,10.33
2019-04-21T06:21:25.163Z,9.97
2019-04-21T06:23:49.598Z,9.77
2019-04-21T06:29:13.343Z,9.30
2019-04-21T06:31:58.124Z,9.87
2019-04-21T06:34:00.209Z,8.93
2019-04-21T06:39:22.633Z,10.10
2019-04-21T06:41:49.131Z,10.07
2019-04-21T06:44:22.728Z,9.97
2019-04-21T06:47:03.737Z,10.83
2019-04-21T06:49:19.064Z,10.20
2019-04-21T06:51:48.273Z,10.23
2019-04-21T06:54:57.043Z,10.13
2019-04-21T06:56:54.317Z,9.77
2019-04-21T06:59:28.091Z,10.07
2019-04-21T07:01:59.829Z,10.10
2019-04-21T07:04:31.785Z,9.93
2019-04-21T07:07:00.477Z,10.77
2019-04-21T07:09:31.243Z,10.13
2019-04-21T07:12:02.270Z,9.18
2019-04-21T07:17:08.015Z,9.43
2019-04-21T07:19:34.961Z,10.70
2019-04-21T07:22:03.309Z,10.53
2019-04-21T07:24:36.777Z,10.68
2019-04-21T07:27:10.210Z,9.65
2019-04-21T07:29:39.866Z,9.55
2019-04-21T07:32:12.710Z,9.88
2019-04-21T07:34:37.975Z,9.70
2019-04-21T07:37:06.012Z,9.43
2019-04-21T07:39:33.962Z,9.68
2019-04-21T07:42:04.598Z,9.03
2019-04-21T07:44:35.075Z,9.53
2019-04-21T07:47:11.566Z,9.45
2019-04-21T07:50:14.946Z,9.78
2019-04-21T07:53:08.491Z,8.73
2019-04-21T07:58:02.839Z,8.65
2019-04-21T08:00:47.916Z,8.38
2019-04-21T08:03:07.970Z,8.65
2019-04-21T08:05:39.989Z,8.70
2019-04-21T08:08:08.164Z,8.55
2019-04-21T08:10:38.046Z,8.78
2019-04-21T08:13:09.824Z,8.63
2019-04-21T08:18:16.660Z,8.73
2019-04-21T08:20:46.296Z,9.03
2019-04-21T08:23:13.519Z,7.42
2019-04-21T08:25:53.330Z,8.80
2019-04-21T08:28:11.849Z,8.53
2019-04-21T08:30:43.044Z,8.10
2019-04-21T08:33:24.992Z,8.93
2019-04-21T08:38:20.801Z,8.18
2019-04-21T08:40:57.361Z,8.55
2019-04-21T08:43:27.543Z,8.25
2019-04-21T08:46:05.395Z,8.00
2019-04-21T08:48:23.959Z,8.00
2019-04-21T08:50:53.953Z,7.62
2019-04-21T08:53:26.811Z,7.10
2019-04-21T08:59:05.454Z,7.90
2019-04-21T09:01:43.435Z,7.00
2019-04-21T09:04:13.287Z,7.35
2019-04-21T09:07:00.971Z,6.83
2019-04-21T09:09:16.813Z,7.22
2019-04-21T09:11:42.302Z,13.20
2019-04-21T09:16:44.395Z,6.95
2019-04-21T09:19:22.463Z,6.75
2019-04-21T09:21:52.553Z,6.95
2019-04-21T09:24:17.289Z,7.25
2019-04-21T09:26:46.480Z,6.55
2019-04-21T09:29:10.874Z,6.80
2019-04-21T09:31:36.510Z,6.75
2019-04-21T09:34:04.769Z,7.30
2019-04-21T09:36:38.922Z,7.05
2019-04-21T09:39:12.970Z,7.22
2019-04-21T09:41:39.513Z,6.47
2019-04-21T09:44:17.283Z,6.45
2019-04-21T09:46:46.581Z,6.55
2019-04-21T09:49:13.909Z,7.08
2019-04-21T09:51:41.706Z,6.50
2019-04-21T09:54:18.975Z,6.67
2019-04-21T09:56:52.381Z,6.62
2019-04-21T09:59:20.748Z,6.47
2019-04-21T10:01:55.960Z,7.30
2019-04-21T10:04:14.303Z,6.65
2019-04-21T10:06:43.571Z,6.45
2019-04-21T10:09:14.870Z,7.37
2019-04-21T10:11:43.816Z,6.75
2019-04-21T10:14:13.802Z,6.35
2019-04-21T10:17:05.366Z,6.87
2019-04-21T10:19:34.354Z,6.40
2019-04-21T10:22:05.551Z,6.58
2019-04-21T10:24:34.157Z,6.55
2019-04-21T10:27:05.301Z,6.28
2019-04-21T10:29:36.775Z,6.20
2019-04-21T10:32:05.834Z,6.45
2019-04-21T10:34:34.926Z,6.55
2019-04-21T10:37:04.886Z,6.92
2019-04-21T10:39:33.972Z,6.30
2019-04-21T10:42:03.587Z,6.42
2019-04-21T10:44:32.777Z,6.60
2019-04-21T10:47:02.641Z,6.78
2019-04-21T10:49:32.729Z,6.08
2019-04-21T10:52:05.319Z,6.03
2019-04-21T10:54:49.173Z,6.35
2019-04-21T10:57:10.467Z,6.00
2019-04-21T10:59:47.117Z,6.08
2019-04-21T11:02:16.982Z,5.83
2019-04-21T11:04:46.972Z,6.25
2019-04-21T11:07:45.398Z,5.70
2019-04-21T11:10:05.250Z,6.00
2019-04-21T11:12:36.501Z,5.72
2019-04-21T11:15:07.024Z,5.58
2019-04-21T11:17:36.896Z,5.83
2019-04-21T11:20:06.690Z,5.60
2019-04-21T11:22:36.990Z,5.78
2019-04-21T11:25:07.006Z,4.95
2019-04-21T11:27:37.298Z,5.70
2019-04-21T11:30:07.499Z,5.67
2019-04-21T11:32:37.130Z,5.87
2019-04-21T11:35:07.349Z,5.85
2019-04-21T11:37:37.782Z,5.22
2019-04-21T11:40:12.260Z,4.83
2019-04-21T11:42:40.221Z,5.35
2019-04-21T11:45:10.524Z,5.85
2019-04-21T11:47:43.702Z,6.42
2019-04-21T11:50:12.995Z,5.70
2019-04-21T11:52:43.198Z,5.00
2019-04-21T11:55:12.910Z,4.95
2019-04-21T11:57:46.909Z,5.67
2019-04-21T12:00:15.773Z,4.37
2019-04-21T12:02:45.708Z,5.40
2019-04-21T12:05:15.154Z,4.58
2019-04-21T12:07:45.140Z,4.85
2019-04-21T12:10:15.414Z,5.10
2019-04-21T12:12:45.410Z,4.72
2019-04-21T12:15:14.787Z,4.72
2019-04-21T12:17:44.031Z,5.00
2019-04-21T12:20:14.712Z,4.87
2019-04-21T12:22:45.232Z,4.90
2019-04-21T12:25:15.738Z,4.78
2019-04-21T12:27:45.721Z,4.70
2019-04-21T12:30:15.743Z,5.12
2019-04-21T12:32:52.218Z,5.20
2019-04-21T12:35:21.859Z,5.00
2019-04-21T12:37:51.175Z,5.05
2019-04-21T12:40:20.974Z,4.90
2019-04-21T12:42:50.446Z,4.42
2019-04-21T12:45:19.675Z,4.80
2019-04-21T12:47:50.651Z,5.28
2019-04-21T12:50:21.376Z,4.95
2019-04-21T12:52:51.648Z,4.85
2019-04-21T12:55:23.981Z,5.00
2019-04-21T12:57:51.316Z,5.05
2019-04-21T13:00:20.783Z,4.87
2019-04-21T13:02:49.902Z,4.75
2019-04-21T13:05:19.946Z,4.83
2019-04-21T13:07:49.333Z,5.05
2019-04-21T13:10:20.228Z,4.53
2019-04-21T13:12:50.062Z,4.67
2019-04-21T13:15:19.890Z,4.62
2019-04-21T13:17:50.145Z,5.05
2019-04-21T13:20:19.375Z,5.35
2019-04-21T13:22:48.424Z,4.90
2019-04-21T13:25:18.066Z,5.28
2019-04-21T13:27:47.278Z,4.50
2019-04-21T13:30:18.083Z,4.87
2019-04-21T13:32:47.202Z,4.60
2019-04-21T13:35:17.066Z,4.85
2019-04-21T13:37:46.082Z,5.65
2019-04-21T13:41:05.294Z,5.10
2019-04-21T13:43:21.517Z,4.45
2019-04-21T13:45:51.772Z,4.37
2019-04-21T13:48:22.402Z,4.85
2019-04-21T13:50:51.499Z,4.67
2019-04-21T13:53:20.880Z,4.22
2019-04-21T13:55:50.879Z,4.05
2019-04-21T13:58:20.115Z,4.50
2019-04-21T14:00:50.517Z,5.17
2019-04-21T14:03:22.996Z,4.60
2019-04-21T14:05:50.835Z,4.65
2019-04-21T14:08:21.049Z,4.50
2019-04-21T14:10:51.413Z,4.53
2019-04-21T14:13:20.501Z,4.75
2019-04-21T14:15:51.617Z,4.35
2019-04-21T14:18:20.709Z,4.92
2019-04-21T14:20:51.173Z,4.75
2019-04-21T14:23:28.615Z,4.17
2019-04-21T14:25:51.169Z,5.40
2019-04-21T14:28:20.334Z,4.97
2019-04-21T14:30:50.470Z,4.55
2019-04-21T14:33:20.491Z,4.70
2019-04-21T14:35:50.591Z,5.50
2019-04-21T14:38:20.582Z,11.05
2019-04-21T14:40:50.353Z,15.20
2019-04-21T14:43:20.426Z,5.40
2019-04-21T14:46:24.909Z,4.50
2019-04-21T14:49:25.182Z,4.80
2019-04-21T14:52:01.225Z,4.50
2019-04-21T14:54:56.413Z,5.17
2019-04-21T14:57:25.479Z,4.60
2019-04-21T14:59:55.142Z,4.20
2019-04-21T15:02:25.462Z,4.28
2019-04-21T15:04:55.652Z,4.53
2019-04-21T15:07:25.411Z,6.20
2019-04-21T15:10:04.665Z,4.92
2019-04-21T15:12:25.801Z,5.50
2019-04-21T15:14:56.011Z,5.25
2019-04-21T15:17:27.488Z,5.00
2019-04-21T15:19:59.779Z,5.22
2019-04-21T15:22:26.494Z,4.78
2019-04-21T15:24:56.338Z,4.70
2019-04-21T15:27:25.386Z,5.40
2019-04-21T15:29:54.323Z,5.15
2019-04-21T15:32:24.300Z,4.67
2019-04-21T15:34:54.038Z,4.45
2019-04-21T15:37:24.110Z,4.40
2019-04-21T15:39:53.194Z,4.60
2019-04-21T15:42:22.276Z,4.40
2019-04-21T15:44:52.430Z,5.75
2019-04-21T15:47:22.117Z,5.80
2019-04-21T15:50:04.737Z,8.85
2019-04-21T15:52:29.797Z,9.50
2019-04-21T15:55:10.694Z,11.28
2019-04-21T15:57:56.599Z,5.70
2019-04-21T16:00:34.196Z,8.53
2019-04-21T16:03:04.528Z,7.45
2019-04-21T16:05:34.809Z,5.85
2019-04-21T16:08:04.072Z,4.80
2019-04-21T16:10:42.862Z,5.22
2019-04-21T16:13:05.645Z,6.87
2019-04-21T16:15:34.830Z,5.60
2019-04-21T16:18:03.886Z,4.45
2019-04-21T16:20:33.224Z,4.70
2019-04-21T16:23:02.369Z,4.75
2019-04-21T16:25:32.716Z,4.75
2019-04-21T16:28:01.927Z,4.42
2019-04-21T16:30:31.050Z,4.00
2019-04-21T16:32:59.950Z,4.20
2019-04-21T16:35:29.603Z,4.08
2019-04-21T16:37:59.470Z,4.60
2019-04-21T16:40:41.533Z,4.30
2019-04-21T16:43:00.376Z,4.37
2019-04-21T16:45:30.681Z,4.17
2019-04-21T16:48:01.128Z,4.20
2019-04-21T16:50:31.545Z,3.75
2019-04-21T16:53:10.224Z,3.90
2019-04-21T16:55:48.884Z,5.22
2019-04-21T16:58:32.511Z,4.42
2019-04-21T17:01:15.747Z,3.52
2019-04-21T17:03:42.308Z,4.28
2019-04-21T17:06:11.480Z,3.80
2019-04-21T17:08:40.940Z,4.08
2019-04-21T17:11:17.289Z,4.70
2019-04-21T17:13:42.132Z,4.15
2019-04-21T17:16:40.634Z,4.28
2019-04-21T17:18:56.385Z,4.03
2019-04-21T17:21:14.741Z,3.90
2019-04-21T17:23:44.230Z,4.12
2019-04-21T17:26:13.517Z,4.40
2019-04-21T17:28:42.761Z,4.70
2019-04-21T17:31:12.845Z,4.30
2019-04-21T17:33:43.450Z,3.75
2019-04-21T17:36:12.615Z,3.60
2019-04-21T17:38:41.815Z,3.33
2019-04-21T17:41:21.829Z,6.78
2019-04-21T17:43:41.734Z,5.33
2019-04-21T17:46:13.573Z,4.70
2019-04-21T17:48:42.874Z,4.53
2019-04-21T17:51:17.651Z,5.78
2019-04-21T17:53:53.794Z,8.00
2019-04-21T17:56:51.054Z,5.83
2019-04-21T17:59:09.614Z,4.75
2019-04-21T18:01:45.070Z,6.65
2019-04-21T18:04:15.300Z,7.40
2019-04-21T18:06:55.595Z,6.05
2019-04-21T18:09:36.403Z,6.75
2019-04-21T18:12:01.442Z,5.28
2019-04-21T18:14:13.695Z,6.08
2019-04-21T18:16:46.233Z,4.40
2019-04-21T18:19:15.067Z,4.12
2019-04-21T18:22:06.909Z,8.58
2019-04-21T18:24:45.914Z,21.15
2019-04-21T18:27:08.977Z,15.72
2019-04-21T18:29:36.794Z,13.53
2019-04-21T18:32:06.293Z,11.45
2019-04-21T18:35:08.468Z,10.85
2019-04-21T18:37:52.899Z,7.45
2019-04-21T18:40:34.816Z,8.45
2019-04-21T18:43:46.808Z,8.10
2019-04-21T18:46:20.563Z,7.53
2019-04-21T18:48:52.114Z,6.67
2019-04-21T18:51:34.952Z,6.37
2019-04-21T18:54:24.221Z,5.80
2019-04-21T18:56:31.506Z,5.40
2019-04-21T18:59:00.836Z,5.78
2019-04-21T19:01:34.388Z,5.25
2019-04-21T19:04:05.402Z,5.15
2019-04-21T19:06:45.496Z,5.53
2019-04-21T19:09:26.645Z,6.10
2019-04-21T19:11:56.252Z,5.92
2019-04-21T19:14:33.383Z,5.85
2019-04-21T19:17:11.015Z,6.47
2019-04-21T19:22:04.613Z,11.05
2019-04-21T19:24:37.001Z,14.98
2019-04-21T19:27:05.171Z,15.98
2019-04-21T19:29:32.988Z,15.25
2019-04-21T19:32:11.918Z,13.75
2019-04-21T19:34:24.497Z,11.53
2019-04-21T19:36:55.808Z,11.73
2019-04-21T19:39:37.515Z,13.00
2019-04-21T19:42:00.828Z,12.58
2019-04-21T19:44:37.961Z,15.88
2019-04-21T19:47:09.271Z,16.10
2019-04-21T19:49:45.760Z,20.17
2019-04-21T19:52:03.600Z,14.47
2019-04-21T19:54:33.996Z,13.10
2019-04-21T19:56:56.553Z,11.10
2019-04-21T19:59:34.640Z,10.18
2019-04-21T20:01:58.240Z,9.65
2019-04-21T20:04:34.123Z,9.43
2019-04-21T20:07:16.825Z,9.03
2019-04-21T20:09:47.783Z,7.45
2019-04-21T20:12:19.614Z,8.18
2019-04-21T20:14:55.377Z,6.62
2019-04-21T20:17:13.748Z,7.00
2019-04-21T20:19:32.182Z,7.78
2019-04-21T20:22:01.377Z,7.70
2019-04-21T20:24:33.773Z,8.00
2019-04-21T20:27:07.645Z,7.25
2019-04-21T20:29:49.896Z,7.35
2019-04-21T20:32:26.356Z,6.72
2019-04-21T20:34:58.626Z,6.20
2019-04-21T20:37:21.206Z,5.33
2019-04-21T20:39:46.199Z,4.87
2019-04-21T20:42:22.195Z,5.05
2019-04-21T20:45:13.115Z,6.05
2019-04-21T20:47:20.047Z,5.90
2019-04-21T20:49:50.460Z,5.62
2019-04-21T20:52:30.710Z,5.40
2019-04-21T20:54:53.898Z,5.45
2019-04-21T20:57:27.305Z,5.70
2019-04-21T20:59:57.921Z,5.37
2019-04-21T21:02:26.566Z,5.30
2019-04-21T21:04:51.579Z,5.95
2019-04-21T21:07:40.013Z,5.65
2019-04-21T21:10:04.973Z,5.42
2019-04-21T21:12:37.153Z,5.40
2019-04-21T21:14:57.789Z,5.00
2019-04-21T21:17:49.995Z,5.00
2019-04-21T21:20:07.942Z,5.47
2019-04-21T21:22:37.725Z,5.00
2019-04-21T21:25:03.056Z,5.30
2019-04-21T21:27:33.730Z,5.73
2019-04-21T21:30:05.877Z,5.60
2019-04-21T21:32:37.322Z,5.72
2019-04-21T21:35:07.973Z,5.57
2019-04-21T21:37:44.001Z,5.30
2019-04-21T21:40:14.266Z,5.05
2019-04-21T21:42:28.252Z,10.28
2019-04-21T21:45:01.254Z,7.53
2019-04-21T21:47:45.179Z,7.37
2019-04-21T21:50:07.344Z,6.23
2019-04-21T21:52:39.963Z,5.60
2019-04-21T21:57:44.495Z,5.30
2019-04-21T22:00:12.320Z,6.13
2019-04-21T22:02:44.229Z,5.93
2019-04-21T22:05:16.543Z,5.83
2019-04-21T22:07:42.515Z,5.80
2019-04-21T22:10:12.519Z,6.40
2019-04-21T22:12:51.646Z,5.87
2019-04-21T22:15:18.919Z,6.30
2019-04-21T22:18:06.078Z,6.13
2019-04-21T22:20:35.018Z,5.93
2019-04-21T22:22:54.351Z,6.30
2019-04-21T22:25:22.597Z,6.50
2019-04-21T22:27:46.771Z,6.23
2019-04-21T22:30:26.079Z,6.00
2019-04-21T22:32:53.738Z,6.20
2019-04-21T22:35:28.502Z,5.90
2019-04-21T22:38:01.941Z,6.30
2019-04-21T22:40:29.140Z,6.27
2019-04-21T22:42:59.415Z,7.40
2019-04-21T22:45:21.268Z,6.10
2019-04-21T22:47:51.992Z,6.23
2019-04-21T22:50:26.683Z,6.73
2019-04-21T22:53:01.511Z,6.60
2019-04-21T22:55:29.670Z,6.53
2019-04-21T22:57:59.867Z,6.03
2019-04-21T23:00:30.158Z,6.20
2019-04-21T23:03:07.948Z,6.37
2019-04-21T23:05:36.366Z,6.43
2019-04-21T23:08:04.876Z,6.30
2019-04-21T23:10:31.814Z,6.90
2019-04-21T23:13:05.725Z,6.70
2019-04-21T23:15:38.986Z,6.50
2019-04-21T23:18:23.071Z,6.83
2019-04-21T23:20:53.558Z,6.37
2019-04-21T23:23:22.100Z,6.40
2019-04-21T23:25:47.232Z,5.97
2019-04-21T23:28:16.020Z,5.77
2019-04-21T23:30:54.510Z,6.53
2019-04-21T23:33:10.937Z,6.50
2019-04-21T23:35:41.752Z,6.13
2019-04-21T23:38:10.531Z,5.97
2019-04-21T23:40:39.806Z,6.40
2019-04-21T23:43:14.951Z,6.10
2019-04-21T23:45:44.356Z,6.60
2019-04-21T23:48:27.170Z,5.80
2019-04-21T23:50:50.684Z,6.03
2019-04-21T23:53:13.235Z,6.73
2019-04-21T23:55:43.378Z,6.80
2019-04-21T23:58:18.659Z,6.97
